Terminal Aerodrome Forecast
Issued by NWS

Home | Current Version | Previous Version | Graphics & Text | Print | Product List | Glossary On
Versions: 1 2 3 4 5 6 7 8 9 10 11 12 13 14 15 16 17 18 19 20 21 22
000
FTUS41 KCLE 011735
TAFFDY
TAF
KFDY 011735Z 0118/0218 05010KT P6SM VCSH BKN015 OVC120
     FM020200 05006KT P6SM SCT020 BKN200
     FM021500 05012KT P6SM SCT025=

USA.gov is the U.S. government's official web portal to all federal, state and local government web resources and services.